Time;durP1;ratioP1;P1;durP2;ratioP2;P2;SDS_P1;SDS_P2;PMS_P1;PMS_P2;Temp;Humidity;BMP_temperature;BMP_pressure;BME280_temperature;BME280_humidity;BME280_pressure;Samples;Min_cycle;Max_cycle;Signal;HPM_P1;HPM_P2
2024/02/01 00:00:37;;;;;;;102.10;52.30;;;;;;;-128.00;-1.00;-1.00;103218;1257;1004609;-79
2024/02/01 00:03:24;;;;;;;108.30;51.80;;;;;;;-128.00;-1.00;-1.00;103158;1253;1059625;-79
2024/02/01 00:05:50;;;;;;;99.60;52.20;;;;;;;-128.00;-1.00;-1.00;103164;1253;1004474;-79
2024/02/01 00:08:17;;;;;;;95.30;50.00;;;;;;;-128.00;-1.00;-1.00;103176;1253;1004878;-78
2024/02/01 00:10:43;;;;;;;106.60;53.80;;;;;;;-128.00;-1.00;-1.00;103176;1253;1005521;-79
2024/02/01 00:13:10;;;;;;;91.60;47.10;;;;;;;-128.00;-1.00;-1.00;103254;1253;1005334;-79
2024/02/01 00:15:37;;;;;;;94.80;48.00;;;;;;;-128.00;-1.00;-1.00;103215;1255;1004933;-78
2024/02/01 00:18:04;;;;;;;93.90;48.30;;;;;;;-128.00;-1.00;-1.00;103169;1254;1007330;-78
2024/02/01 00:20:30;;;;;;;105.10;50.40;;;;;;;-128.00;-1.00;-1.00;103175;1259;1003827;-78
2024/02/01 00:22:57;;;;;;;93.70;47.50;;;;;;;-128.00;-1.00;-1.00;103295;1253;1003720;-78
2024/02/01 00:25:24;;;;;;;102.70;53.10;;;;;;;-128.00;-1.00;-1.00;103152;1253;1004503;-78
2024/02/01 00:27:50;;;;;;;109.30;55.00;;;;;;;-128.00;-1.00;-1.00;105667;1253;1003835;-78
2024/02/01 00:30:17;;;;;;;114.20;58.70;;;;;;;-128.00;-1.00;-1.00;105647;1253;1003969;-78
2024/02/01 00:32:44;;;;;;;132.80;65.40;;;;;;;-128.00;-1.00;-1.00;105629;1253;1003804;-79
2024/02/01 00:35:11;;;;;;;122.50;61.20;;;;;;;-128.00;-1.00;-1.00;105570;1253;1003917;-78
2024/02/01 00:37:37;;;;;;;114.20;56.50;;;;;;;-128.00;-1.00;-1.00;103717;1257;1004836;-79
2024/02/01 00:40:05;;;;;;;98.60;54.70;;;;;;;-128.00;-1.00;-1.00;103150;1259;1004945;-78
2024/02/01 00:42:32;;;;;;;98.50;51.00;;;;;;;-128.00;-1.00;-1.00;104497;1254;1004557;-78
2024/02/01 00:44:59;;;;;;;99.20;50.60;;;;;;;-128.00;-1.00;-1.00;103228;1253;1007399;-78
2024/02/01 00:47:25;;;;;;;102.90;51.70;;;;;;;-128.00;-1.00;-1.00;103235;1259;1005147;-78
2024/02/01 00:49:52;;;;;;;122.30;60.40;;;;;;;-128.00;-1.00;-1.00;103209;1253;1004177;-79
2024/02/01 00:52:18;;;;;;;107.70;55.90;;;;;;;-128.00;-1.00;-1.00;103228;1253;1005958;-78
2024/02/01 00:54:45;;;;;;;106.50;53.00;;;;;;;-128.00;-1.00;-1.00;103217;1253;1004185;-78
2024/02/01 00:57:11;;;;;;;111.80;58.60;;;;;;;-128.00;-1.00;-1.00;103139;1253;1004777;-78
2024/02/01 00:59:38;;;;;;;128.60;63.50;;;;;;;-128.00;-1.00;-1.00;103245;1257;1005105;-78
2024/02/01 01:02:06;;;;;;;107.80;58.70;;;;;;;-128.00;-1.00;-1.00;103266;1255;1004454;-78
2024/02/01 01:04:33;;;;;;;108.10;53.40;;;;;;;-128.00;-1.00;-1.00;103179;1253;1005635;-78
2024/02/01 01:06:59;;;;;;;124.50;58.40;;;;;;;-128.00;-1.00;-1.00;103216;1253;1004342;-78
2024/02/01 01:09:27;;;;;;;116.10;56.20;;;;;;;-128.00;-1.00;-1.00;105629;1253;1004600;-78
2024/02/01 01:11:54;;;;;;;109.50;53.10;;;;;;;-128.00;-1.00;-1.00;105636;1253;1004327;-78
2024/02/01 01:14:20;;;;;;;112.20;53.10;;;;;;;-128.00;-1.00;-1.00;105620;1256;1004880;-78
2024/02/01 01:16:47;;;;;;;121.00;60.30;;;;;;;-128.00;-1.00;-1.00;105569;1253;1004072;-78
2024/02/01 01:19:13;;;;;;;108.80;53.00;;;;;;;-128.00;-1.00;-1.00;105665;1253;1004163;-78
2024/02/01 01:21:40;;;;;;;134.90;71.80;;;;;;;-128.00;-1.00;-1.00;105518;1256;1003767;-78
2024/02/01 01:24:06;;;;;;;147.50;76.10;;;;;;;-128.00;-1.00;-1.00;103339;1258;1003854;-79
2024/02/01 01:26:33;;;;;;;150.60;72.60;;;;;;;-128.00;-1.00;-1.00;103137;1254;1003877;-79
2024/02/01 01:29:00;;;;;;;118.30;59.90;;;;;;;-128.00;-1.00;-1.00;103160;1256;1004379;-78
2024/02/01 01:31:26;;;;;;;113.50;58.30;;;;;;;-128.00;-1.00;-1.00;103096;1253;1004302;-78
2024/02/01 01:33:53;;;;;;;127.80;63.50;;;;;;;-128.00;-1.00;-1.00;103133;1256;1004684;-78
2024/02/01 01:36:20;;;;;;;133.90;64.10;;;;;;;-128.00;-1.00;-1.00;103187;1255;1004312;-79
2024/02/01 01:38:46;;;;;;;157.30;78.60;;;;;;;-128.00;-1.00;-1.00;103213;1257;1005222;-78
2024/02/01 01:41:13;;;;;;;150.10;76.60;;;;;;;-128.00;-1.00;-1.00;103247;1256;1004400;-78
2024/02/01 01:43:40;;;;;;;167.50;87.50;;;;;;;-128.00;-1.00;-1.00;103181;1259;1004767;-79
2024/02/01 01:46:07;;;;;;;168.50;82.40;;;;;;;-128.00;-1.00;-1.00;104094;1254;1004700;-78
2024/02/01 01:48:33;;;;;;;163.00;78.90;;;;;;;-128.00;-1.00;-1.00;105547;1254;1004301;-78
2024/02/01 01:51:01;;;;;;;186.70;93.00;;;;;;;-128.00;-1.00;-1.00;105154;1254;1003750;-78
2024/02/01 01:53:29;;;;;;;176.00;95.60;;;;;;;-128.00;-1.00;-1.00;104822;1258;1004484;-78
2024/02/01 01:55:55;;;;;;;171.60;85.10;;;;;;;-128.00;-1.00;-1.00;105518;1254;1003681;-79
2024/02/01 01:58:22;;;;;;;166.40;83.40;;;;;;;-128.00;-1.00;-1.00;103792;1254;1004746;-78
2024/02/01 02:00:49;;;;;;;173.80;89.30;;;;;;;-128.00;-1.00;-1.00;103142;1258;1004188;-78
2024/02/01 02:03:15;;;;;;;198.10;100.50;;;;;;;-128.00;-1.00;-1.00;103159;1255;1004516;-78
2024/02/01 02:05:42;;;;;;;177.70;95.50;;;;;;;-128.00;-1.00;-1.00;103135;1254;1005301;-78
2024/02/01 02:08:09;;;;;;;151.50;74.60;;;;;;;-128.00;-1.00;-1.00;103147;1258;1004500;-78
2024/02/01 02:10:36;;;;;;;150.20;83.80;;;;;;;-128.00;-1.00;-1.00;103094;1257;1004161;-78
2024/02/01 02:13:03;;;;;;;120.00;63.40;;;;;;;-128.00;-1.00;-1.00;103230;1254;1004687;-78
2024/02/01 02:15:33;;;;;;;161.60;84.90;;;;;;;-128.00;-1.00;-1.00;103133;1258;1004251;-78
2024/02/01 02:18:00;;;;;;;172.30;87.60;;;;;;;-128.00;-1.00;-1.00;103173;1258;1058166;-78
2024/02/01 02:20:26;;;;;;;161.70;84.30;;;;;;;-128.00;-1.00;-1.00;103084;1254;1004362;-78
2024/02/01 02:22:54;;;;;;;149.90;76.90;;;;;;;-128.00;-1.00;-1.00;103953;1253;1005038;-78
2024/02/01 02:25:21;;;;;;;200.20;103.50;;;;;;;-128.00;-1.00;-1.00;104014;1255;1004412;-78
2024/02/01 02:27:48;;;;;;;167.00;81.00;;;;;;;-128.00;-1.00;-1.00;103824;1253;1004684;-78
2024/02/01 02:30:15;;;;;;;194.10;101.30;;;;;;;-128.00;-1.00;-1.00;105555;1253;1003568;-78
2024/02/01 02:32:42;;;;;;;210.90;112.10;;;;;;;-128.00;-1.00;-1.00;105575;1253;1004432;-79
2024/02/01 02:35:13;;;;;;;231.50;115.90;;;;;;;-128.00;-1.00;-1.00;105572;1257;1004796;-79
2024/02/01 02:37:46;;;;;;;203.20;108.00;;;;;;;-128.00;-1.00;-1.00;105566;1254;1046460;-79
2024/02/01 02:40:14;;;;;;;216.90;116.50;;;;;;;-128.00;-1.00;-1.00;105548;1254;1060796;-79
2024/02/01 02:42:42;;;;;;;212.10;109.70;;;;;;;-128.00;-1.00;-1.00;105446;1258;1004799;-79
2024/02/01 02:45:09;;;;;;;212.80;108.60;;;;;;;-128.00;-1.00;-1.00;105666;1254;1004034;-78
2024/02/01 02:47:36;;;;;;;148.40;76.20;;;;;;;-128.00;-1.00;-1.00;105645;1253;1003899;-78
2024/02/01 02:50:07;;;;;;;211.20;107.40;;;;;;;-128.00;-1.00;-1.00;104544;1253;1004092;-79
2024/02/01 02:52:35;;;;;;;195.70;101.80;;;;;;;-128.00;-1.00;-1.00;103233;1259;1063601;-79
2024/02/01 02:55:02;;;;;;;192.10;100.90;;;;;;;-128.00;-1.00;-1.00;103378;1257;1004733;-79
2024/02/01 02:57:29;;;;;;;177.60;93.10;;;;;;;-128.00;-1.00;-1.00;103293;1256;1004398;-79
2024/02/01 02:59:56;;;;;;;180.80;100.30;;;;;;;-128.00;-1.00;-1.00;103388;1259;1004676;-79
2024/02/01 03:02:23;;;;;;;151.00;75.40;;;;;;;-128.00;-1.00;-1.00;103314;1253;1004331;-80
2024/02/01 03:04:49;;;;;;;166.00;91.10;;;;;;;-128.00;-1.00;-1.00;103715;1256;1004845;-79
2024/02/01 03:07:16;;;;;;;156.80;78.50;;;;;;;-128.00;-1.00;-1.00;103406;1259;1004199;-79
2024/02/01 03:09:43;;;;;;;133.10;72.40;;;;;;;-128.00;-1.00;-1.00;104962;1258;1004109;-79
2024/02/01 03:12:10;;;;;;;118.70;65.00;;;;;;;-128.00;-1.00;-1.00;103226;1255;1004301;-79
2024/02/01 03:14:37;;;;;;;100.50;48.50;;;;;;;-128.00;-1.00;-1.00;103230;1257;1003993;-79
2024/02/01 03:17:04;;;;;;;136.50;66.20;;;;;;;-128.00;-1.00;-1.00;103240;1255;1004530;-79
2024/02/01 03:19:39;;;;;;;100.70;51.40;;;;;;;-128.00;-1.00;-1.00;103272;1254;1004147;-78
2024/02/01 03:22:05;;;;;;;107.50;56.10;;;;;;;-128.00;-1.00;-1.00;103258;1254;1059056;-79
2024/02/01 03:24:32;;;;;;;82.00;44.10;;;;;;;-128.00;-1.00;-1.00;103259;1257;1004275;-79
2024/02/01 03:26:58;;;;;;;89.90;46.60;;;;;;;-128.00;-1.00;-1.00;103233;1254;1005269;-80
2024/02/01 03:29:26;;;;;;;38.70;20.60;;;;;;;-128.00;-1.00;-1.00;103255;1256;1005391;-79
2024/02/01 03:31:52;;;;;;;90.60;48.80;;;;;;;-128.00;-1.00;-1.00;103249;1255;1004514;-79
2024/02/01 03:34:22;;;;;;;81.30;40.50;;;;;;;-128.00;-1.00;-1.00;103217;1254;1005846;-79
2024/02/01 03:36:52;;;;;;;93.60;49.20;;;;;;;-128.00;-1.00;-1.00;103228;1253;1047094;-78
2024/02/01 03:39:25;;;;;;;89.10;51.00;;;;;;;-128.00;-1.00;-1.00;103161;1255;1047221;-78
2024/02/01 03:41:53;;;;;;;96.20;45.40;;;;;;;-128.00;-1.00;-1.00;103148;1255;1061979;-78
2024/02/01 03:44:20;;;;;;;82.70;43.30;;;;;;;-128.00;-1.00;-1.00;103242;1257;1005233;-79
2024/02/01 03:46:47;;;;;;;78.20;44.40;;;;;;;-128.00;-1.00;-1.00;104239;1254;1004568;-79
2024/02/01 03:49:14;;;;;;;88.10;45.50;;;;;;;-128.00;-1.00;-1.00;103229;1258;1004657;-79
2024/02/01 03:51:41;;;;;;;84.10;43.60;;;;;;;-128.00;-1.00;-1.00;103206;1253;1003974;-79
2024/02/01 03:54:08;;;;;;;78.90;40.80;;;;;;;-128.00;-1.00;-1.00;103891;1256;1004869;-78
2024/02/01 03:56:35;;;;;;;89.40;46.80;;;;;;;-128.00;-1.00;-1.00;103122;1254;1004356;-78
2024/02/01 03:59:02;;;;;;;85.90;49.10;;;;;;;-128.00;-1.00;-1.00;104244;1253;1004485;-79
2024/02/01 04:01:30;;;;;;;75.80;39.10;;;;;;;-128.00;-1.00;-1.00;105604;1252;1004139;-78
2024/02/01 04:03:57;;;;;;;88.00;40.20;;;;;;;-128.00;-1.00;-1.00;104764;1259;1003999;-78
2024/02/01 04:06:24;;;;;;;63.50;31.30;;;;;;;-128.00;-1.00;-1.00;103035;1257;1005236;-78
2024/02/01 04:08:51;;;;;;;51.20;24.30;;;;;;;-128.00;-1.00;-1.00;103118;1259;1005449;-79
2024/02/01 04:11:18;;;;;;;36.90;18.50;;;;;;;-128.00;-1.00;-1.00;103155;1254;1006239;-79
2024/02/01 04:13:45;;;;;;;29.00;15.30;;;;;;;-128.00;-1.00;-1.00;104421;1253;1004134;-79
2024/02/01 04:16:11;;;;;;;63.70;28.30;;;;;;;-128.00;-1.00;-1.00;103748;1257;1004906;-79
2024/02/01 04:18:38;;;;;;;51.80;26.30;;;;;;;-128.00;-1.00;-1.00;104173;1253;1005621;-79
2024/02/01 04:21:06;;;;;;;69.20;40.60;;;;;;;-128.00;-1.00;-1.00;105565;1254;1004678;-79
2024/02/01 04:23:32;;;;;;;78.50;40.60;;;;;;;-128.00;-1.00;-1.00;103992;1254;1004469;-79
2024/02/01 04:25:59;;;;;;;70.70;37.80;;;;;;;-128.00;-1.00;-1.00;103213;1257;1005736;-79
2024/02/01 04:28:26;;;;;;;45.90;27.70;;;;;;;-128.00;-1.00;-1.00;103183;1254;1004268;-78
2024/02/01 04:30:53;;;;;;;49.10;24.10;;;;;;;-128.00;-1.00;-1.00;103223;1254;1005113;-79
2024/02/01 04:33:20;;;;;;;27.90;15.30;;;;;;;-128.00;-1.00;-1.00;103133;1257;1004198;-79
2024/02/01 04:35:47;;;;;;;20.80;11.50;;;;;;;-128.00;-1.00;-1.00;103205;1261;1004076;-79
2024/02/01 04:38:14;;;;;;;35.50;20.70;;;;;;;-128.00;-1.00;-1.00;104456;1257;1004195;-79
2024/02/01 04:40:43;;;;;;;23.30;12.50;;;;;;;-128.00;-1.00;-1.00;105506;1254;1004821;-79
2024/02/01 04:43:10;;;;;;;20.40;9.60;;;;;;;-128.00;-1.00;-1.00;105496;1254;1062013;-80
2024/02/01 04:45:37;;;;;;;14.70;7.10;;;;;;;-128.00;-1.00;-1.00;103149;1254;1004652;-79
2024/02/01 04:48:10;;;;;;;23.40;13.10;;;;;;;-128.00;-1.00;-1.00;103166;1254;1005388;-79
2024/02/01 04:50:37;;;;;;;48.70;21.60;;;;;;;-128.00;-1.00;-1.00;103163;1254;1044705;-80
2024/02/01 04:53:05;;;;;;;20.10;11.30;;;;;;;-128.00;-1.00;-1.00;103150;1254;1005134;-79
2024/02/01 04:55:32;;;;;;;23.80;12.90;;;;;;;-128.00;-1.00;-1.00;103169;1255;1064655;-79
2024/02/01 04:57:59;;;;;;;26.40;12.80;;;;;;;-128.00;-1.00;-1.00;103164;1254;1004285;-79
2024/02/01 05:00:27;;;;;;;25.20;13.90;;;;;;;-128.00;-1.00;-1.00;103163;1254;1003870;-79
2024/02/01 05:02:54;;;;;;;20.00;11.50;;;;;;;-128.00;-1.00;-1.00;104133;1254;1004569;-80
2024/02/01 05:05:20;;;;;;;16.40;8.50;;;;;;;-128.00;-1.00;-1.00;105376;1254;1004076;-79
2024/02/01 05:07:47;;;;;;;35.40;19.70;;;;;;;-128.00;-1.00;-1.00;105498;1254;1004356;-79
2024/02/01 05:10:13;;;;;;;26.60;18.40;;;;;;;-128.00;-1.00;-1.00;105542;1254;1004151;-79
2024/02/01 05:12:40;;;;;;;16.20;11.00;;;;;;;-128.00;-1.00;-1.00;105509;1254;1004773;-80
2024/02/01 05:15:07;;;;;;;14.30;9.20;;;;;;;-128.00;-1.00;-1.00;105533;1254;1004543;-79
2024/02/01 05:17:34;;;;;;;16.20;10.50;;;;;;;-128.00;-1.00;-1.00;105563;1254;1004119;-79
2024/02/01 05:20:01;;;;;;;22.90;13.10;;;;;;;-128.00;-1.00;-1.00;105550;1254;1005944;-79
2024/02/01 05:22:28;;;;;;;23.50;14.10;;;;;;;-128.00;-1.00;-1.00;105621;1254;1004349;-79
2024/02/01 05:24:54;;;;;;;27.10;13.10;;;;;;;-128.00;-1.00;-1.00;103512;1254;1004631;-79
2024/02/01 05:27:21;;;;;;;30.00;15.90;;;;;;;-128.00;-1.00;-1.00;103239;1257;1004402;-79
2024/02/01 05:29:50;;;;;;;18.80;8.90;;;;;;;-128.00;-1.00;-1.00;103217;1255;1006168;-79
2024/02/01 05:32:17;;;;;;;24.30;10.10;;;;;;;-128.00;-1.00;-1.00;103700;1254;1064474;-79
2024/02/01 05:34:45;;;;;;;36.80;28.10;;;;;;;-128.00;-1.00;-1.00;105580;1254;1006926;-79
2024/02/01 05:37:13;;;;;;;23.60;15.20;;;;;;;-128.00;-1.00;-1.00;105598;1253;1005678;-79
2024/02/01 05:39:44;;;;;;;21.30;14.00;;;;;;;-128.00;-1.00;-1.00;105605;1254;1004660;-80
2024/02/01 05:42:13;;;;;;;42.40;20.10;;;;;;;-128.00;-1.00;-1.00;105614;1253;1046903;-80
2024/02/01 05:44:40;;;;;;;40.00;21.60;;;;;;;-128.00;-1.00;-1.00;103604;1254;1061733;-79
2024/02/01 05:47:07;;;;;;;32.30;17.00;;;;;;;-128.00;-1.00;-1.00;103515;1255;1004626;-79
2024/02/01 05:49:33;;;;;;;28.60;15.80;;;;;;;-128.00;-1.00;-1.00;105564;1253;1005600;-79
2024/02/01 05:52:02;;;;;;;32.50;19.60;;;;;;;-128.00;-1.00;-1.00;105231;1253;1004985;-79
2024/02/01 05:54:30;;;;;;;;;;;;;;;-128.00;-1.00;-1.00;105600;1253;1046250;-79
2024/02/01 05:56:56;;;;;;;24.30;14.70;;;;;;;-128.00;-1.00;-1.00;104196;1254;1004683;-79
2024/02/01 05:59:23;;;;;;;29.60;16.80;;;;;;;-128.00;-1.00;-1.00;103292;1254;1004844;-79
2024/02/01 06:01:49;;;;;;;32.10;19.90;;;;;;;-128.00;-1.00;-1.00;105333;1254;1003555;-79
2024/02/01 06:04:16;;;;;;;27.40;18.20;;;;;;;-128.00;-1.00;-1.00;105547;1254;1004236;-80
2024/02/01 06:06:47;;;;;;;26.10;15.20;;;;;;;-128.00;-1.00;-1.00;105565;1253;1003436;-80
2024/02/01 06:09:13;;;;;;;19.90;13.70;;;;;;;-128.00;-1.00;-1.00;103380;1254;1061486;-79
2024/02/01 06:11:44;;;;;;;28.20;17.20;;;;;;;-128.00;-1.00;-1.00;103166;1254;1004867;-79
2024/02/01 06:14:14;;;;;;;26.30;16.90;;;;;;;-128.00;-1.00;-1.00;105478;1254;1059601;-79
2024/02/01 06:16:41;;;;;;;23.80;13.60;;;;;;;-128.00;-1.00;-1.00;105473;1253;1045593;-79
2024/02/01 06:19:07;;;;;;;35.40;18.80;;;;;;;-128.00;-1.00;-1.00;105557;1254;1004473;-79
2024/02/01 06:21:36;;;;;;;31.40;19.50;;;;;;;-128.00;-1.00;-1.00;105622;1253;1004506;-80
2024/02/01 06:24:04;;;;;;;29.80;17.90;;;;;;;-128.00;-1.00;-1.00;105595;1253;1004657;-80
2024/02/01 06:26:30;;;;;;;33.70;20.10;;;;;;;-128.00;-1.00;-1.00;105562;1254;1004214;-79
2024/02/01 06:29:07;;;;;;;42.70;26.30;;;;;;;-128.00;-1.00;-1.00;105201;1253;1003834;-79
2024/02/01 06:31:40;;;;;;;58.80;33.00;;;;;;;-128.00;-1.00;-1.00;103205;1254;1046741;-79
2024/02/01 06:34:13;;;;;;;55.90;41.30;;;;;;;-128.00;-1.00;-1.00;103187;1254;1062903;-79
2024/02/01 06:36:41;;;;;;;50.90;32.60;;;;;;;-128.00;-1.00;-1.00;103265;1253;1057389;-79
2024/02/01 06:39:16;;;;;;;28.70;19.50;;;;;;;-128.00;-1.00;-1.00;103286;1254;1004452;-80
2024/02/01 06:42:01;;;;;;;29.10;17.20;;;;;;;-128.00;-1.00;-1.00;105518;1253;1044850;-79
2024/02/01 06:44:28;;;;;;;37.70;20.60;;;;;;;-128.00;-1.00;-1.00;105613;1254;1047650;-80
2024/02/01 06:49:39;;;;;;;49.60;27.20;;;;;;;-128.00;-1.00;-1.00;105467;1254;1058362;-80
2024/02/01 06:58:03;;;;;;;64.40;39.00;;;;;;;-128.00;-1.00;-1.00;104186;1253;1047627;-79
2024/02/01 07:03:13;;;;;;;91.10;46.80;;;;;;;-128.00;-1.00;-1.00;105529;1253;1059354;-79
2024/02/01 07:05:58;;;;;;;80.80;48.50;;;;;;;-128.00;-1.00;-1.00;105515;1253;1059569;-79
2024/02/01 07:16:24;;;;;;;38.60;25.20;;;;;;;-128.00;-1.00;-1.00;105488;1253;1057662;-79
2024/02/01 07:19:10;;;;;;;39.50;24.30;;;;;;;-128.00;-1.00;-1.00;105513;1254;1060001;-79
2024/02/01 08:00:33;;;;;;;92.10;49.80;;;;;;;-128.00;-1.00;-1.00;103661;1253;1060019;-79
2024/02/01 08:03:03;;;;;;;59.60;35.40;;;;;;;-128.00;-1.00;-1.00;103357;1253;1046096;-79
2024/02/01 08:08:16;;;;;;;31.60;18.60;;;;;;;-128.00;-1.00;-1.00;103727;1254;1061600;-80
2024/02/01 08:10:44;;;;;;;31.00;18.40;;;;;;;-128.00;-1.00;-1.00;103753;1257;1004884;-80
2024/02/01 08:13:12;;;;;;;54.40;27.50;;;;;;;-128.00;-1.00;-1.00;103623;1257;1060897;-79
2024/02/01 08:15:42;;;;;;;47.00;23.60;;;;;;;-128.00;-1.00;-1.00;103620;1254;1004096;-80
2024/02/01 08:18:09;;;;;;;34.10;19.80;;;;;;;-128.00;-1.00;-1.00;103805;1254;1046689;-79
2024/02/01 08:20:36;;;;;;;31.70;18.50;;;;;;;-128.00;-1.00;-1.00;103537;1254;1004416;-79
2024/02/01 08:23:03;;;;;;;21.80;13.00;;;;;;;-128.00;-1.00;-1.00;104817;1253;1004038;-80
2024/02/01 08:25:30;;;;;;;10.30;7.20;;;;;;;-128.00;-1.00;-1.00;105497;1253;1004309;-80
2024/02/01 08:28:00;;;;;;;54.40;28.20;;;;;;;-128.00;-1.00;-1.00;105459;1253;1004466;-80
2024/02/01 08:30:29;;;;;;;25.20;15.10;;;;;;;-128.00;-1.00;-1.00;105529;1253;1046481;-80
2024/02/01 08:33:05;;;;;;;;;;;;;;;-128.00;-1.00;-1.00;105581;1253;1060953;-80
2024/02/01 08:35:36;;;;;;;26.10;14.80;;;;;;;-128.00;-1.00;-1.00;105521;1253;1057200;-79
2024/02/01 08:38:09;;;;;;;20.80;11.00;;;;;;;-128.00;-1.00;-1.00;105175;1254;1059628;-80
2024/02/01 08:40:42;;;;;;;21.10;12.90;;;;;;;-128.00;-1.00;-1.00;105521;1254;1045635;-80
2024/02/01 08:43:10;;;;;;;30.50;16.10;;;;;;;-128.00;-1.00;-1.00;105530;1253;1046579;-80
2024/02/01 08:45:40;;;;;;;27.60;12.10;;;;;;;-128.00;-1.00;-1.00;105495;1253;1003983;-80
2024/02/01 08:48:08;;;;;;;19.40;10.10;;;;;;;-128.00;-1.00;-1.00;105509;1253;1059033;-80
2024/02/01 08:50:42;;;;;;;25.30;14.00;;;;;;;-128.00;-1.00;-1.00;105315;1253;1004513;-79
2024/02/01 08:53:12;;;;;;;35.90;16.00;;;;;;;-128.00;-1.00;-1.00;105485;1253;1045024;-80
2024/02/01 08:55:40;;;;;;;56.70;30.50;;;;;;;-128.00;-1.00;-1.00;105486;1253;1046478;-79
2024/02/01 08:58:11;;;;;;;51.00;24.40;;;;;;;-128.00;-1.00;-1.00;105516;1254;1005232;-80
2024/02/01 09:00:39;;;;;;;76.90;36.40;;;;;;;-128.00;-1.00;-1.00;105518;1253;1058329;-80
2024/02/01 09:03:08;;;;;;;58.80;30.10;;;;;;;-128.00;-1.00;-1.00;105456;1253;1003578;-80
2024/02/01 09:05:45;;;;;;;;;;;;;;;-128.00;-1.00;-1.00;105501;1253;1044650;-80
2024/02/01 09:08:15;;;;;;;90.30;38.40;;;;;;;-128.00;-1.00;-1.00;105524;1253;1046153;-79
2024/02/01 09:10:50;;;;;;;67.90;32.60;;;;;;;-128.00;-1.00;-1.00;105524;1253;1061627;-80
2024/02/01 09:13:19;;;;;;;38.00;19.10;;;;;;;-128.00;-1.00;-1.00;105493;1253;1057942;-80
2024/02/01 09:15:46;;;;;;;;;;;;;;;-128.00;-1.00;-1.00;105526;1253;1059459;-80
2024/02/01 09:18:12;;;;;;;25.90;12.90;;;;;;;-128.00;-1.00;-1.00;105519;1254;1006128;-79
2024/02/01 09:20:39;;;;;;;36.20;18.60;;;;;;;-128.00;-1.00;-1.00;105558;1253;1004959;-80
2024/02/01 09:23:07;;;;;;;34.20;17.50;;;;;;;-128.00;-1.00;-1.00;105524;1253;1004376;-80
2024/02/01 09:25:34;;;;;;;70.70;33.20;;;;;;;-128.00;-1.00;-1.00;103279;1253;1004500;-80
2024/02/01 09:28:11;;;;;;;94.80;49.10;;;;;;;-128.00;-1.00;-1.00;103428;1253;1004569;-79
2024/02/01 09:30:42;;;;;;;43.40;24.00;;;;;;;-128.00;-1.00;-1.00;103265;1253;1045352;-79
2024/02/01 09:33:09;;;;;;;61.80;28.60;;;;;;;-128.00;-1.00;-1.00;104813;1253;1048687;-79
2024/02/01 09:35:36;;;;;;;51.60;26.10;;;;;;;-128.00;-1.00;-1.00;105548;1253;1004070;-80
2024/02/01 09:38:02;;;;;;;32.40;18.50;;;;;;;-128.00;-1.00;-1.00;105533;1253;1004116;-80
2024/02/01 09:40:30;;;;;;;53.20;22.30;;;;;;;-128.00;-1.00;-1.00;104284;1253;1004532;-79
2024/02/01 09:42:56;;;;;;;21.20;12.00;;;;;;;-128.00;-1.00;-1.00;102915;1253;1004577;-79
2024/02/01 09:45:28;;;;;;;44.20;21.10;;;;;;;-128.00;-1.00;-1.00;103071;1253;1004714;-80
2024/02/01 09:47:56;;;;;;;42.40;20.90;;;;;;;-128.00;-1.00;-1.00;103965;1254;1061601;-80
2024/02/01 09:50:23;;;;;;;38.00;20.40;;;;;;;-128.00;-1.00;-1.00;103135;1253;1004957;-80
2024/02/01 09:52:51;;;;;;;43.50;24.70;;;;;;;-128.00;-1.00;-1.00;102935;1253;1004310;-79
2024/02/01 09:55:19;;;;;;;35.20;20.60;;;;;;;-128.00;-1.00;-1.00;103187;1253;1003726;-79
2024/02/01 09:57:49;;;;;;;30.30;15.20;;;;;;;-128.00;-1.00;-1.00;103038;1253;1049558;-80
2024/02/01 10:00:18;;;;;;;28.00;15.70;;;;;;;-128.00;-1.00;-1.00;102805;1253;1062240;-80
2024/02/01 10:02:45;;;;;;;26.90;15.00;;;;;;;-128.00;-1.00;-1.00;103031;1253;1058751;-80
2024/02/01 10:05:13;;;;;;;38.60;20.60;;;;;;;-128.00;-1.00;-1.00;102935;1253;1003951;-80
2024/02/01 10:07:39;;;;;;;31.40;16.90;;;;;;;-128.00;-1.00;-1.00;103852;1254;1004429;-80
2024/02/01 10:10:06;;;;;;;32.70;20.20;;;;;;;-128.00;-1.00;-1.00;102980;1253;1004654;-79
2024/02/01 10:12:34;;;;;;;48.90;21.20;;;;;;;-128.00;-1.00;-1.00;103431;1253;1004158;-80
2024/02/01 10:15:08;;;;;;;57.30;27.40;;;;;;;-128.00;-1.00;-1.00;103451;1253;1005571;-80
2024/02/01 10:17:45;;;;;;;29.00;16.00;;;;;;;-128.00;-1.00;-1.00;103536;1253;1059278;-80
2024/02/01 10:20:33;;;;;;;39.90;20.40;;;;;;;-128.00;-1.00;-1.00;103410;1253;1046748;-79
2024/02/01 10:23:02;;;;;;;35.40;17.80;;;;;;;-128.00;-1.00;-1.00;102926;1257;1047820;-80
2024/02/01 10:25:34;;;;;;;30.60;16.60;;;;;;;-128.00;-1.00;-1.00;103013;1253;1060904;-80
2024/02/01 10:28:04;;;;;;;36.80;20.50;;;;;;;-128.00;-1.00;-1.00;103092;1252;1060174;-79
2024/02/01 10:30:31;;;;;;;37.80;16.00;;;;;;;-128.00;-1.00;-1.00;102977;1253;1059543;-80
2024/02/01 10:33:03;;;;;;;36.00;18.90;;;;;;;-128.00;-1.00;-1.00;102860;1253;1005241;-80
2024/02/01 10:35:31;;;;;;;30.90;15.60;;;;;;;-128.00;-1.00;-1.00;102980;1253;1047055;-80
2024/02/01 10:38:00;;;;;;;34.00;17.70;;;;;;;-128.00;-1.00;-1.00;103073;1253;1004627;-79
2024/02/01 10:40:39;;;;;;;42.70;19.20;;;;;;;-128.00;-1.00;-1.00;103451;1253;1057342;-80
2024/02/01 10:43:07;;;;;;;65.20;31.10;;;;;;;-128.00;-1.00;-1.00;102966;1254;1060632;-80
2024/02/01 10:45:37;;;;;;;40.60;22.60;;;;;;;-128.00;-1.00;-1.00;103241;1253;1004534;-79
2024/02/01 10:48:08;;;;;;;89.30;53.30;;;;;;;-128.00;-1.00;-1.00;103269;1254;1048954;-79
2024/02/01 10:50:37;;;;;;;65.00;36.60;;;;;;;-128.00;-1.00;-1.00;103284;1253;1062811;-79
2024/02/01 10:53:04;;;;;;;42.00;22.90;;;;;;;-128.00;-1.00;-1.00;105535;1253;1058088;-80
2024/02/01 10:55:30;;;;;;;40.50;26.00;;;;;;;-128.00;-1.00;-1.00;105527;1252;1004249;-80
2024/02/01 10:57:59;;;;;;;36.40;24.00;;;;;;;-128.00;-1.00;-1.00;105561;1253;1004267;-80
2024/02/01 11:00:29;;;;;;;34.50;15.80;;;;;;;-128.00;-1.00;-1.00;103409;1253;1047558;-79
2024/02/01 11:02:57;;;;;;;47.10;22.50;;;;;;;-128.00;-1.00;-1.00;102905;1253;1060799;-79
2024/02/01 11:05:31;;;;;;;62.80;31.20;;;;;;;-128.00;-1.00;-1.00;102943;1253;1059191;-80
2024/02/01 11:07:58;;;;;;;33.80;20.70;;;;;;;-128.00;-1.00;-1.00;103105;1253;1059090;-80
2024/02/01 11:10:28;;;;;;;37.60;21.20;;;;;;;-128.00;-1.00;-1.00;103027;1253;1005038;-79
2024/02/01 11:12:54;;;;;;;39.10;19.80;;;;;;;-128.00;-1.00;-1.00;102991;1257;1046425;-79
2024/02/01 11:15:23;;;;;;;39.40;21.90;;;;;;;-128.00;-1.00;-1.00;103154;1253;1004667;-79
2024/02/01 11:17:49;;;;;;;46.40;27.10;;;;;;;-128.00;-1.00;-1.00;105503;1253;1004528;-79
2024/02/01 11:20:21;;;;;;;72.70;33.10;;;;;;;-128.00;-1.00;-1.00;103128;1253;1004780;-80
2024/02/01 11:22:56;;;;;;;46.50;24.30;;;;;;;-128.00;-1.00;-1.00;102900;1253;1046330;-80
2024/02/01 11:25:32;;;;;;;63.90;30.10;;;;;;;-128.00;-1.00;-1.00;103452;1253;1047505;-80
2024/02/01 11:27:59;;;;;;;56.00;25.80;;;;;;;-128.00;-1.00;-1.00;103080;1253;1062254;-80
2024/02/01 11:30:29;;;;;;;43.00;24.40;;;;;;;-128.00;-1.00;-1.00;102943;1253;1004736;-80
2024/02/01 11:32:56;;;;;;;103.60;44.10;;;;;;;-128.00;-1.00;-1.00;102895;1253;1060434;-80
2024/02/01 11:35:23;;;;;;;81.50;41.60;;;;;;;-128.00;-1.00;-1.00;103044;1254;1004167;-79
2024/02/01 11:38:01;;;;;;;43.20;24.30;;;;;;;-128.00;-1.00;-1.00;103300;1253;1004467;-80
2024/02/01 11:40:28;;;;;;;39.90;24.20;;;;;;;-128.00;-1.00;-1.00;103569;1253;1062268;-80
2024/02/01 11:42:58;;;;;;;94.90;42.10;;;;;;;-128.00;-1.00;-1.00;103225;1253;1004979;-80
2024/02/01 11:45:25;;;;;;;177.90;69.00;;;;;;;-128.00;-1.00;-1.00;103435;1253;1060450;-79
2024/02/01 11:47:53;;;;;;;64.10;32.50;;;;;;;-128.00;-1.00;-1.00;103446;1257;1008267;-79
2024/02/01 11:50:23;;;;;;;44.00;28.10;;;;;;;-128.00;-1.00;-1.00;103372;1253;1005891;-80
2024/02/01 11:53:09;;;;;;;47.80;21.60;;;;;;;-128.00;-1.00;-1.00;103456;1252;1062848;-79
2024/02/01 11:55:35;;;;;;;36.50;23.00;;;;;;;-128.00;-1.00;-1.00;103232;1254;1058770;-80
2024/02/01 11:58:11;;;;;;;47.10;27.50;;;;;;;-128.00;-1.00;-1.00;103460;1252;1003964;-79
2024/02/01 12:00:38;;;;;;;41.00;24.20;;;;;;;-128.00;-1.00;-1.00;103296;1252;1046497;-80
2024/02/01 12:03:05;;;;;;;48.10;33.50;;;;;;;-128.00;-1.00;-1.00;103384;1253;1003566;-80
2024/02/01 12:05:32;;;;;;;59.20;30.20;;;;;;;-128.00;-1.00;-1.00;103469;1253;1003504;-80